sensor_id;sensor_type;location;lat;lon;timestamp;temperature;humidity
2523;DHT22;1272;53.332;9.860;2023-04-07T00:02:17;4.50;99.90
2523;DHT22;1272;53.332;9.860;2023-04-07T00:04:43;4.40;99.90
2523;DHT22;1272;53.332;9.860;2023-04-07T00:07:08;4.40;99.90
2523;DHT22;1272;53.332;9.860;2023-04-07T00:09:34;4.50;99.90
2523;DHT22;1272;53.332;9.860;2023-04-07T00:12:01;4.80;99.90
2523;DHT22;1272;53.332;9.860;2023-04-07T00:14:27;4.70;99.90
2523;DHT22;1272;53.332;9.860;2023-04-07T00:16:53;4.60;99.90
2523;DHT22;1272;53.332;9.860;2023-04-07T00:19:19;4.50;99.90
2523;DHT22;1272;53.332;9.860;2023-04-07T00:21:44;4.70;99.90
2523;DHT22;1272;53.332;9.860;2023-04-07T00:24:10;4.70;99.90
2523;DHT22;1272;53.332;9.860;2023-04-07T00:26:36;4.60;99.90
2523;DHT22;1272;53.332;9.860;2023-04-07T00:29:02;4.60;99.90
2523;DHT22;1272;53.332;9.860;2023-04-07T00:31:28;4.60;99.90
2523;DHT22;1272;53.332;9.860;2023-04-07T00:33:54;4.60;99.90
2523;DHT22;1272;53.332;9.860;2023-04-07T00:36:22;4.60;99.90
2523;DHT22;1272;53.332;9.860;2023-04-07T00:38:47;4.60;99.90
2523;DHT22;1272;53.332;9.860;2023-04-07T00:41:13;4.60;99.90
2523;DHT22;1272;53.332;9.860;2023-04-07T00:43:39;4.50;99.90
2523;DHT22;1272;53.332;9.860;2023-04-07T00:46:05;4.50;99.90
2523;DHT22;1272;53.332;9.860;2023-04-07T00:48:30;4.50;99.90
2523;DHT22;1272;53.332;9.860;2023-04-07T00:50:56;4.60;99.90
2523;DHT22;1272;53.332;9.860;2023-04-07T00:53:22;4.60;99.90
2523;DHT22;1272;53.332;9.860;2023-04-07T00:55:48;4.50;99.90
2523;DHT22;1272;53.332;9.860;2023-04-07T00:58:14;4.30;99.90
2523;DHT22;1272;53.332;9.860;2023-04-07T01:01:18;4.20;99.90
2523;DHT22;1272;53.332;9.860;2023-04-07T01:03:48;4.20;99.90
2523;DHT22;1272;53.332;9.860;2023-04-07T01:06:19;4.20;99.90
2523;DHT22;1272;53.332;9.860;2023-04-07T01:09:01;4.20;99.90
2523;DHT22;1272;53.332;9.860;2023-04-07T01:12:05;4.20;99.90
2523;DHT22;1272;53.332;9.860;2023-04-07T01:14:37;4.20;99.90
2523;DHT22;1272;53.332;9.860;2023-04-07T01:17:06;4.20;99.90
2523;DHT22;1272;53.332;9.860;2023-04-07T01:22:44;4.10;99.90
2523;DHT22;1272;53.332;9.860;2023-04-07T01:25:45;4.10;99.90
2523;DHT22;1272;53.332;9.860;2023-04-07T01:31:08;4.00;99.90
2523;DHT22;1272;53.332;9.860;2023-04-07T01:33:36;4.00;99.90
2523;DHT22;1272;53.332;9.860;2023-04-07T01:36:04;3.90;99.90
2523;DHT22;1272;53.332;9.860;2023-04-07T01:38:32;3.90;99.90
2523;DHT22;1272;53.332;9.860;2023-04-07T01:40:58;3.90;99.90
2523;DHT22;1272;53.332;9.860;2023-04-07T01:43:25;3.90;99.90
2523;DHT22;1272;53.332;9.860;2023-04-07T01:45:53;3.90;99.90
2523;DHT22;1272;53.332;9.860;2023-04-07T01:48:20;3.90;99.90
2523;DHT22;1272;53.332;9.860;2023-04-07T01:50:46;3.90;99.90
2523;DHT22;1272;53.332;9.860;2023-04-07T01:53:13;3.80;99.90
2523;DHT22;1272;53.332;9.860;2023-04-07T01:55:41;3.70;99.90
2523;DHT22;1272;53.332;9.860;2023-04-07T01:58:07;3.70;99.90
2523;DHT22;1272;53.332;9.860;2023-04-07T02:00:33;3.60;99.90
2523;DHT22;1272;53.332;9.860;2023-04-07T02:03:06;3.60;99.90
2523;DHT22;1272;53.332;9.860;2023-04-07T02:05:35;3.70;99.90
2523;DHT22;1272;53.332;9.860;2023-04-07T02:08:04;3.60;99.90
2523;DHT22;1272;53.332;9.860;2023-04-07T02:10:36;3.60;99.90
2523;DHT22;1272;53.332;9.860;2023-04-07T02:13:04;3.60;99.90
2523;DHT22;1272;53.332;9.860;2023-04-07T02:15:31;3.60;99.90
2523;DHT22;1272;53.332;9.860;2023-04-07T02:17:58;3.60;99.90
2523;DHT22;1272;53.332;9.860;2023-04-07T02:20:25;3.50;99.90
2523;DHT22;1272;53.332;9.860;2023-04-07T02:22:52;3.50;99.90
2523;DHT22;1272;53.332;9.860;2023-04-07T02:25:31;3.40;99.90
2523;DHT22;1272;53.332;9.860;2023-04-07T02:27:58;3.50;99.90
2523;DHT22;1272;53.332;9.860;2023-04-07T02:30:25;3.40;99.90
2523;DHT22;1272;53.332;9.860;2023-04-07T02:32:51;3.40;99.90
2523;DHT22;1272;53.332;9.860;2023-04-07T02:35:17;3.40;99.90
2523;DHT22;1272;53.332;9.860;2023-04-07T02:37:44;3.30;99.90
2523;DHT22;1272;53.332;9.860;2023-04-07T02:40:10;3.30;99.90
2523;DHT22;1272;53.332;9.860;2023-04-07T02:42:36;3.30;99.90
2523;DHT22;1272;53.332;9.860;2023-04-07T02:45:03;3.40;99.90
2523;DHT22;1272;53.332;9.860;2023-04-07T02:47:28;3.30;99.90
2523;DHT22;1272;53.332;9.860;2023-04-07T02:49:54;3.30;99.90
2523;DHT22;1272;53.332;9.860;2023-04-07T02:52:20;3.20;99.90
2523;DHT22;1272;53.332;9.860;2023-04-07T02:54:45;3.20;99.90
2523;DHT22;1272;53.332;9.860;2023-04-07T02:57:11;3.20;99.90
2523;DHT22;1272;53.332;9.860;2023-04-07T02:59:38;3.20;99.90
2523;DHT22;1272;53.332;9.860;2023-04-07T03:02:04;3.10;99.90
2523;DHT22;1272;53.332;9.860;2023-04-07T03:04:30;3.10;99.90
2523;DHT22;1272;53.332;9.860;2023-04-07T03:06:56;3.10;99.90
2523;DHT22;1272;53.332;9.860;2023-04-07T03:09:22;3.10;99.90
2523;DHT22;1272;53.332;9.860;2023-04-07T03:11:48;3.10;99.90
2523;DHT22;1272;53.332;9.860;2023-04-07T03:14:15;3.10;99.90
2523;DHT22;1272;53.332;9.860;2023-04-07T03:16:43;3.10;99.90
2523;DHT22;1272;53.332;9.860;2023-04-07T03:19:09;3.00;99.90
2523;DHT22;1272;53.332;9.860;2023-04-07T03:21:37;3.00;99.90
2523;DHT22;1272;53.332;9.860;2023-04-07T03:24:03;3.10;99.90
2523;DHT22;1272;53.332;9.860;2023-04-07T03:26:29;3.10;99.90
2523;DHT22;1272;53.332;9.860;2023-04-07T03:28:55;3.10;99.90
2523;DHT22;1272;53.332;9.860;2023-04-07T03:31:21;3.00;99.90
2523;DHT22;1272;53.332;9.860;2023-04-07T03:33:48;3.00;99.90
2523;DHT22;1272;53.332;9.860;2023-04-07T03:36:14;3.00;99.90
2523;DHT22;1272;53.332;9.860;2023-04-07T03:38:40;3.00;99.90
2523;DHT22;1272;53.332;9.860;2023-04-07T03:41:05;2.90;99.90
2523;DHT22;1272;53.332;9.860;2023-04-07T03:43:31;2.90;99.90
2523;DHT22;1272;53.332;9.860;2023-04-07T03:45:57;2.90;99.90
2523;DHT22;1272;53.332;9.860;2023-04-07T03:48:22;2.80;99.90
2523;DHT22;1272;53.332;9.860;2023-04-07T03:50:48;2.70;99.90
2523;DHT22;1272;53.332;9.860;2023-04-07T03:53:14;2.80;99.90
2523;DHT22;1272;53.332;9.860;2023-04-07T03:55:42;2.70;99.90
2523;DHT22;1272;53.332;9.860;2023-04-07T03:58:08;2.70;99.90
2523;DHT22;1272;53.332;9.860;2023-04-07T04:00:34;2.70;99.90
2523;DHT22;1272;53.332;9.860;2023-04-07T04:03:00;2.60;99.90
2523;DHT22;1272;53.332;9.860;2023-04-07T04:05:26;2.60;99.90
2523;DHT22;1272;53.332;9.860;2023-04-07T04:07:52;2.60;99.90
2523;DHT22;1272;53.332;9.860;2023-04-07T04:10:18;2.60;99.90
2523;DHT22;1272;53.332;9.860;2023-04-07T04:12:46;2.50;99.90
2523;DHT22;1272;53.332;9.860;2023-04-07T04:15:12;2.50;99.90
2523;DHT22;1272;53.332;9.860;2023-04-07T04:17:37;2.60;99.90
2523;DHT22;1272;53.332;9.860;2023-04-07T04:20:03;2.60;99.90
2523;DHT22;1272;53.332;9.860;2023-04-07T04:22:29;2.50;99.90
2523;DHT22;1272;53.332;9.860;2023-04-07T04:24:55;2.40;99.90
2523;DHT22;1272;53.332;9.860;2023-04-07T04:27:21;2.50;99.90
2523;DHT22;1272;53.332;9.860;2023-04-07T04:29:46;2.50;99.90
2523;DHT22;1272;53.332;9.860;2023-04-07T04:32:13;2.40;99.90
2523;DHT22;1272;53.332;9.860;2023-04-07T04:34:39;2.40;99.90
2523;DHT22;1272;53.332;9.860;2023-04-07T04:37:06;2.30;99.90
2523;DHT22;1272;53.332;9.860;2023-04-07T04:39:32;2.40;99.90
2523;DHT22;1272;53.332;9.860;2023-04-07T04:41:58;2.40;99.90
2523;DHT22;1272;53.332;9.860;2023-04-07T04:44:24;2.30;99.90
2523;DHT22;1272;53.332;9.860;2023-04-07T04:46:50;2.50;99.90
2523;DHT22;1272;53.332;9.860;2023-04-07T04:49:16;2.40;99.90
2523;DHT22;1272;53.332;9.860;2023-04-07T04:51:43;2.30;99.90
2523;DHT22;1272;53.332;9.860;2023-04-07T04:54:09;2.30;99.90
2523;DHT22;1272;53.332;9.860;2023-04-07T04:56:35;2.40;99.90
2523;DHT22;1272;53.332;9.860;2023-04-07T04:59:02;2.50;99.90
2523;DHT22;1272;53.332;9.860;2023-04-07T05:01:28;2.50;99.90
2523;DHT22;1272;53.332;9.860;2023-04-07T05:03:54;2.40;99.90
2523;DHT22;1272;53.332;9.860;2023-04-07T05:06:19;2.30;99.90
2523;DHT22;1272;53.332;9.860;2023-04-07T05:08:45;2.40;99.90
2523;DHT22;1272;53.332;9.860;2023-04-07T05:11:11;2.40;99.90
2523;DHT22;1272;53.332;9.860;2023-04-07T05:13:37;2.50;99.90
2523;DHT22;1272;53.332;9.860;2023-04-07T05:16:03;2.50;99.90
2523;DHT22;1272;53.332;9.860;2023-04-07T05:18:29;2.50;99.90
2523;DHT22;1272;53.332;9.860;2023-04-07T05:20:55;2.50;99.90
2523;DHT22;1272;53.332;9.860;2023-04-07T05:23:21;2.50;99.90
2523;DHT22;1272;53.332;9.860;2023-04-07T05:25:46;2.60;99.90
2523;DHT22;1272;53.332;9.860;2023-04-07T05:28:12;2.60;99.90
2523;DHT22;1272;53.332;9.860;2023-04-07T05:30:38;2.70;99.90
2523;DHT22;1272;53.332;9.860;2023-04-07T05:33:04;2.70;99.90
2523;DHT22;1272;53.332;9.860;2023-04-07T05:35:29;2.70;99.90
2523;DHT22;1272;53.332;9.860;2023-04-07T05:37:55;2.70;99.90
2523;DHT22;1272;53.332;9.860;2023-04-07T05:40:21;2.70;99.90
2523;DHT22;1272;53.332;9.860;2023-04-07T05:42:47;2.80;99.90
2523;DHT22;1272;53.332;9.860;2023-04-07T05:45:13;2.90;99.90
2523;DHT22;1272;53.332;9.860;2023-04-07T05:47:38;2.90;99.90
2523;DHT22;1272;53.332;9.860;2023-04-07T05:50:05;2.90;99.90
2523;DHT22;1272;53.332;9.860;2023-04-07T05:52:30;2.90;99.90
2523;DHT22;1272;53.332;9.860;2023-04-07T05:54:56;3.00;99.90
2523;DHT22;1272;53.332;9.860;2023-04-07T05:57:22;3.00;99.90
2523;DHT22;1272;53.332;9.860;2023-04-07T05:59:47;3.00;99.90
2523;DHT22;1272;53.332;9.860;2023-04-07T06:02:13;3.10;99.90
2523;DHT22;1272;53.332;9.860;2023-04-07T06:04:39;3.10;99.90
2523;DHT22;1272;53.332;9.860;2023-04-07T06:07:05;3.20;99.90
2523;DHT22;1272;53.332;9.860;2023-04-07T06:09:31;3.30;99.90
2523;DHT22;1272;53.332;9.860;2023-04-07T06:11:57;3.40;99.90
2523;DHT22;1272;53.332;9.860;2023-04-07T06:14:23;3.40;99.90
2523;DHT22;1272;53.332;9.860;2023-04-07T06:16:49;3.50;99.90
2523;DHT22;1272;53.332;9.860;2023-04-07T06:19:14;3.60;99.90
2523;DHT22;1272;53.332;9.860;2023-04-07T06:21:40;3.70;99.90
2523;DHT22;1272;53.332;9.860;2023-04-07T06:24:06;3.60;99.90
2523;DHT22;1272;53.332;9.860;2023-04-07T06:26:32;3.80;99.90
2523;DHT22;1272;53.332;9.860;2023-04-07T06:28:58;3.80;99.90
2523;DHT22;1272;53.332;9.860;2023-04-07T06:31:24;3.80;99.90
2523;DHT22;1272;53.332;9.860;2023-04-07T06:33:50;3.80;99.90
2523;DHT22;1272;53.332;9.860;2023-04-07T06:36:16;3.80;99.90
2523;DHT22;1272;53.332;9.860;2023-04-07T06:38:42;3.90;99.90
2523;DHT22;1272;53.332;9.860;2023-04-07T06:41:08;3.90;99.90
2523;DHT22;1272;53.332;9.860;2023-04-07T06:43:37;4.00;99.90
2523;DHT22;1272;53.332;9.860;2023-04-07T06:46:03;4.20;99.90
2523;DHT22;1272;53.332;9.860;2023-04-07T06:48:28;4.30;99.90
2523;DHT22;1272;53.332;9.860;2023-04-07T06:50:54;4.50;99.90
2523;DHT22;1272;53.332;9.860;2023-04-07T06:53:20;4.50;99.90
2523;DHT22;1272;53.332;9.860;2023-04-07T06:55:46;4.50;99.90
2523;DHT22;1272;53.332;9.860;2023-04-07T06:58:11;4.50;99.90
2523;DHT22;1272;53.332;9.860;2023-04-07T07:00:37;4.60;99.90
2523;DHT22;1272;53.332;9.860;2023-04-07T07:03:03;4.60;99.90
2523;DHT22;1272;53.332;9.860;2023-04-07T07:05:28;4.70;99.90
2523;DHT22;1272;53.332;9.860;2023-04-07T07:07:54;4.70;99.90
2523;DHT22;1272;53.332;9.860;2023-04-07T07:10:20;4.80;99.90
2523;DHT22;1272;53.332;9.860;2023-04-07T07:12:47;4.90;99.90
2523;DHT22;1272;53.332;9.860;2023-04-07T07:15:13;5.00;99.90
2523;DHT22;1272;53.332;9.860;2023-04-07T07:17:39;5.10;99.90
2523;DHT22;1272;53.332;9.860;2023-04-07T07:20:05;5.20;99.90
2523;DHT22;1272;53.332;9.860;2023-04-07T07:22:31;5.30;99.90
2523;DHT22;1272;53.332;9.860;2023-04-07T07:24:57;5.30;99.90
2523;DHT22;1272;53.332;9.860;2023-04-07T07:27:22;5.40;99.90
2523;DHT22;1272;53.332;9.860;2023-04-07T07:29:48;5.50;99.90
2523;DHT22;1272;53.332;9.860;2023-04-07T07:32:14;5.50;99.90
2523;DHT22;1272;53.332;9.860;2023-04-07T07:34:39;5.60;99.90
2523;DHT22;1272;53.332;9.860;2023-04-07T07:37:05;5.60;99.90
2523;DHT22;1272;53.332;9.860;2023-04-07T07:39:31;5.70;99.90
2523;DHT22;1272;53.332;9.860;2023-04-07T07:41:57;5.80;99.90
2523;DHT22;1272;53.332;9.860;2023-04-07T07:44:22;6.10;99.90
2523;DHT22;1272;53.332;9.860;2023-04-07T07:46:49;6.10;99.90
2523;DHT22;1272;53.332;9.860;2023-04-07T07:49:15;6.10;99.90
2523;DHT22;1272;53.332;9.860;2023-04-07T07:51:42;6.20;99.90
2523;DHT22;1272;53.332;9.860;2023-04-07T07:54:07;6.20;99.90
2523;DHT22;1272;53.332;9.860;2023-04-07T07:56:34;6.40;99.90
2523;DHT22;1272;53.332;9.860;2023-04-07T07:59:00;6.50;99.90
2523;DHT22;1272;53.332;9.860;2023-04-07T08:01:26;6.50;99.90
2523;DHT22;1272;53.332;9.860;2023-04-07T08:03:51;6.50;99.90
2523;DHT22;1272;53.332;9.860;2023-04-07T08:06:17;6.70;99.90
2523;DHT22;1272;53.332;9.860;2023-04-07T08:08:43;6.90;99.90
2523;DHT22;1272;53.332;9.860;2023-04-07T08:11:08;7.00;99.90
2523;DHT22;1272;53.332;9.860;2023-04-07T08:13:34;7.10;99.90
2523;DHT22;1272;53.332;9.860;2023-04-07T08:16:00;7.20;99.90
2523;DHT22;1272;53.332;9.860;2023-04-07T08:18:26;7.20;99.90
2523;DHT22;1272;53.332;9.860;2023-04-07T08:20:51;7.30;99.90
2523;DHT22;1272;53.332;9.860;2023-04-07T08:23:18;7.40;99.90
2523;DHT22;1272;53.332;9.860;2023-04-07T08:25:43;7.50;99.90
2523;DHT22;1272;53.332;9.860;2023-04-07T08:28:09;7.70;99.90
2523;DHT22;1272;53.332;9.860;2023-04-07T08:30:35;7.70;99.90
2523;DHT22;1272;53.332;9.860;2023-04-07T08:33:04;7.80;99.90
2523;DHT22;1272;53.332;9.860;2023-04-07T08:35:30;7.90;99.90
2523;DHT22;1272;53.332;9.860;2023-04-07T08:37:56;8.00;99.90
2523;DHT22;1272;53.332;9.860;2023-04-07T08:40:22;8.00;99.90
2523;DHT22;1272;53.332;9.860;2023-04-07T08:42:48;8.20;99.90
2523;DHT22;1272;53.332;9.860;2023-04-07T08:45:16;8.10;99.90
2523;DHT22;1272;53.332;9.860;2023-04-07T08:47:42;8.10;99.90
2523;DHT22;1272;53.332;9.860;2023-04-07T08:50:10;8.20;99.90
2523;DHT22;1272;53.332;9.860;2023-04-07T08:52:55;8.30;99.90
2523;DHT22;1272;53.332;9.860;2023-04-07T08:55:22;8.50;99.90
2523;DHT22;1272;53.332;9.860;2023-04-07T08:57:48;8.80;99.90
2523;DHT22;1272;53.332;9.860;2023-04-07T09:00:16;9.00;99.90
2523;DHT22;1272;53.332;9.860;2023-04-07T09:02:43;9.10;99.90
2523;DHT22;1272;53.332;9.860;2023-04-07T09:05:10;9.20;99.90
2523;DHT22;1272;53.332;9.860;2023-04-07T09:07:38;9.10;99.90
2523;DHT22;1272;53.332;9.860;2023-04-07T09:10:05;9.30;99.90
2523;DHT22;1272;53.332;9.860;2023-04-07T09:12:31;9.20;99.90
2523;DHT22;1272;53.332;9.860;2023-04-07T09:14:58;9.30;99.90
2523;DHT22;1272;53.332;9.860;2023-04-07T09:17:28;9.20;99.90
2523;DHT22;1272;53.332;9.860;2023-04-07T09:19:57;9.30;99.90
2523;DHT22;1272;53.332;9.860;2023-04-07T09:22:40;9.30;99.90
2523;DHT22;1272;53.332;9.860;2023-04-07T09:25:22;9.40;99.90
2523;DHT22;1272;53.332;9.860;2023-04-07T09:28:01;9.50;99.90
2523;DHT22;1272;53.332;9.860;2023-04-07T09:30:29;9.60;99.90
2523;DHT22;1272;53.332;9.860;2023-04-07T09:32:56;9.60;99.90
2523;DHT22;1272;53.332;9.860;2023-04-07T09:35:22;9.70;99.90
2523;DHT22;1272;53.332;9.860;2023-04-07T09:38:05;10.00;99.90
2523;DHT22;1272;53.332;9.860;2023-04-07T09:40:32;10.30;99.90
2523;DHT22;1272;53.332;9.860;2023-04-07T09:42:59;10.40;99.90
2523;DHT22;1272;53.332;9.860;2023-04-07T09:45:26;10.60;99.90
2523;DHT22;1272;53.332;9.860;2023-04-07T09:47:53;10.60;99.90
2523;DHT22;1272;53.332;9.860;2023-04-07T09:50:38;10.60;99.90
2523;DHT22;1272;53.332;9.860;2023-04-07T09:53:04;10.70;99.90
2523;DHT22;1272;53.332;9.860;2023-04-07T09:55:30;10.60;99.90
2523;DHT22;1272;53.332;9.860;2023-04-07T09:57:56;10.70;99.90
2523;DHT22;1272;53.332;9.860;2023-04-07T10:00:23;10.90;99.90
2523;DHT22;1272;53.332;9.860;2023-04-07T10:02:49;11.00;99.90
2523;DHT22;1272;53.332;9.860;2023-04-07T10:05:15;11.00;99.90
2523;DHT22;1272;53.332;9.860;2023-04-07T10:07:42;10.90;99.90
2523;DHT22;1272;53.332;9.860;2023-04-07T10:10:08;11.00;99.90
2523;DHT22;1272;53.332;9.860;2023-04-07T10:12:36;11.10;99.90
2523;DHT22;1272;53.332;9.860;2023-04-07T10:15:03;11.20;99.90
2523;DHT22;1272;53.332;9.860;2023-04-07T10:17:30;11.20;99.90
2523;DHT22;1272;53.332;9.860;2023-04-07T10:20:00;11.40;99.90
2523;DHT22;1272;53.332;9.860;2023-04-07T10:22:27;11.50;99.90
2523;DHT22;1272;53.332;9.860;2023-04-07T10:24:58;11.50;99.90
2523;DHT22;1272;53.332;9.860;2023-04-07T10:27:44;11.70;99.90
2523;DHT22;1272;53.332;9.860;2023-04-07T10:30:29;12.00;99.90
2523;DHT22;1272;53.332;9.860;2023-04-07T10:32:56;11.90;99.90
2523;DHT22;1272;53.332;9.860;2023-04-07T10:35:22;11.90;99.90
2523;DHT22;1272;53.332;9.860;2023-04-07T10:40:32;12.10;99.90
2523;DHT22;1272;53.332;9.860;2023-04-07T10:42:58;12.20;99.90
2523;DHT22;1272;53.332;9.860;2023-04-07T10:48:20;12.10;99.90
2523;DHT22;1272;53.332;9.860;2023-04-07T10:53:32;12.20;99.90
2523;DHT22;1272;53.332;9.860;2023-04-07T10:55:58;12.20;99.90
2523;DHT22;1272;53.332;9.860;2023-04-07T10:58:25;12.10;99.90
2523;DHT22;1272;53.332;9.860;2023-04-07T11:03:26;12.20;99.90
2523;DHT22;1272;53.332;9.860;2023-04-07T11:06:11;12.30;99.90
2523;DHT22;1272;53.332;9.860;2023-04-07T11:08:42;12.40;99.90
2523;DHT22;1272;53.332;9.860;2023-04-07T11:11:09;12.40;99.90
2523;DHT22;1272;53.332;9.860;2023-04-07T11:13:49;12.40;99.90
2523;DHT22;1272;53.332;9.860;2023-04-07T11:16:19;12.50;99.90
2523;DHT22;1272;53.332;9.860;2023-04-07T11:18:56;12.50;99.90
2523;DHT22;1272;53.332;9.860;2023-04-07T11:21:22;12.60;99.90
2523;DHT22;1272;53.332;9.860;2023-04-07T11:23:47;12.40;99.90
2523;DHT22;1272;53.332;9.860;2023-04-07T11:26:14;12.50;99.90
2523;DHT22;1272;53.332;9.860;2023-04-07T11:28:48;12.80;99.90
2523;DHT22;1272;53.332;9.860;2023-04-07T11:31:24;12.90;99.90
2523;DHT22;1272;53.332;9.860;2023-04-07T11:33:55;13.00;99.90
2523;DHT22;1272;53.332;9.860;2023-04-07T11:36:28;13.10;99.90
2523;DHT22;1272;53.332;9.860;2023-04-07T11:38:55;13.10;99.90
2523;DHT22;1272;53.332;9.860;2023-04-07T11:41:22;13.20;99.90
2523;DHT22;1272;53.332;9.860;2023-04-07T11:43:48;13.20;99.90
2523;DHT22;1272;53.332;9.860;2023-04-07T11:46:17;13.00;99.90
2523;DHT22;1272;53.332;9.860;2023-04-07T11:48:44;12.70;99.90
2523;DHT22;1272;53.332;9.860;2023-04-07T11:51:22;12.90;99.90
2523;DHT22;1272;53.332;9.860;2023-04-07T11:53:55;13.20;99.90
2523;DHT22;1272;53.332;9.860;2023-04-07T11:56:21;13.40;99.90
2523;DHT22;1272;53.332;9.860;2023-04-07T11:58:48;13.60;99.90
2523;DHT22;1272;53.332;9.860;2023-04-07T12:01:14;13.60;99.90
2523;DHT22;1272;53.332;9.860;2023-04-07T12:03:58;13.70;99.90
2523;DHT22;1272;53.332;9.860;2023-04-07T12:06:32;13.90;99.90
2523;DHT22;1272;53.332;9.860;2023-04-07T12:09:00;13.80;99.90
2523;DHT22;1272;53.332;9.860;2023-04-07T12:11:26;13.70;99.90
2523;DHT22;1272;53.332;9.860;2023-04-07T12:13:53;13.70;99.90
2523;DHT22;1272;53.332;9.860;2023-04-07T12:16:22;13.90;99.90
2523;DHT22;1272;53.332;9.860;2023-04-07T12:18:48;14.00;99.90
2523;DHT22;1272;53.332;9.860;2023-04-07T12:21:16;13.90;99.90
2523;DHT22;1272;53.332;9.860;2023-04-07T12:23:42;13.90;99.90
2523;DHT22;1272;53.332;9.860;2023-04-07T12:26:07;14.00;99.90
2523;DHT22;1272;53.332;9.860;2023-04-07T12:28:35;14.00;99.90
2523;DHT22;1272;53.332;9.860;2023-04-07T12:31:02;14.10;99.90
2523;DHT22;1272;53.332;9.860;2023-04-07T12:33:28;14.10;99.90
2523;DHT22;1272;53.332;9.860;2023-04-07T12:35:55;14.30;99.90
2523;DHT22;1272;53.332;9.860;2023-04-07T12:38:21;14.30;99.90
2523;DHT22;1272;53.332;9.860;2023-04-07T12:40:47;14.60;99.90
2523;DHT22;1272;53.332;9.860;2023-04-07T12:43:12;14.40;99.90
2523;DHT22;1272;53.332;9.860;2023-04-07T12:45:38;14.50;99.90
2523;DHT22;1272;53.332;9.860;2023-04-07T12:48:04;14.60;99.90
2523;DHT22;1272;53.332;9.860;2023-04-07T12:50:30;14.70;99.90
2523;DHT22;1272;53.332;9.860;2023-04-07T12:52:56;14.80;99.90
2523;DHT22;1272;53.332;9.860;2023-04-07T12:55:24;14.80;99.90
2523;DHT22;1272;53.332;9.860;2023-04-07T12:57:50;15.00;99.90
2523;DHT22;1272;53.332;9.860;2023-04-07T13:00:16;14.80;99.90
2523;DHT22;1272;53.332;9.860;2023-04-07T13:02:42;14.60;99.90
2523;DHT22;1272;53.332;9.860;2023-04-07T13:05:08;14.50;99.90
2523;DHT22;1272;53.332;9.860;2023-04-07T13:07:34;14.60;99.90
2523;DHT22;1272;53.332;9.860;2023-04-07T13:10:01;14.70;99.90
2523;DHT22;1272;53.332;9.860;2023-04-07T13:12:27;14.60;99.90
2523;DHT22;1272;53.332;9.860;2023-04-07T13:14:53;14.50;99.90
2523;DHT22;1272;53.332;9.860;2023-04-07T13:17:19;14.60;99.90
2523;DHT22;1272;53.332;9.860;2023-04-07T13:19:44;14.50;99.90
2523;DHT22;1272;53.332;9.860;2023-04-07T13:22:13;14.40;99.90
2523;DHT22;1272;53.332;9.860;2023-04-07T13:24:39;14.70;99.90
2523;DHT22;1272;53.332;9.860;2023-04-07T13:27:05;14.80;99.90
2523;DHT22;1272;53.332;9.860;2023-04-07T13:29:31;14.60;99.90
2523;DHT22;1272;53.332;9.860;2023-04-07T13:32:06;14.40;99.90
2523;DHT22;1272;53.332;9.860;2023-04-07T13:34:35;14.40;99.90
2523;DHT22;1272;53.332;9.860;2023-04-07T13:37:02;14.50;99.90
2523;DHT22;1272;53.332;9.860;2023-04-07T13:39:28;14.60;99.90
2523;DHT22;1272;53.332;9.860;2023-04-07T13:41:54;14.70;99.90
2523;DHT22;1272;53.332;9.860;2023-04-07T13:44:20;14.80;99.90
2523;DHT22;1272;53.332;9.860;2023-04-07T13:46:46;14.80;99.90
2523;DHT22;1272;53.332;9.860;2023-04-07T13:49:12;14.90;99.90
2523;DHT22;1272;53.332;9.860;2023-04-07T13:51:39;14.80;99.90
2523;DHT22;1272;53.332;9.860;2023-04-07T13:54:05;14.80;99.90
2523;DHT22;1272;53.332;9.860;2023-04-07T13:56:31;14.70;99.90
2523;DHT22;1272;53.332;9.860;2023-04-07T13:59:00;14.60;99.90
2523;DHT22;1272;53.332;9.860;2023-04-07T14:01:26;14.50;99.90
2523;DHT22;1272;53.332;9.860;2023-04-07T14:03:52;14.60;99.90
2523;DHT22;1272;53.332;9.860;2023-04-07T14:06:18;14.90;99.90
2523;DHT22;1272;53.332;9.860;2023-04-07T14:08:47;15.20;99.90
2523;DHT22;1272;53.332;9.860;2023-04-07T14:11:17;15.20;99.90
2523;DHT22;1272;53.332;9.860;2023-04-07T14:13:43;15.30;99.90
2523;DHT22;1272;53.332;9.860;2023-04-07T14:16:09;15.40;99.90
2523;DHT22;1272;53.332;9.860;2023-04-07T14:18:34;15.30;99.90
2523;DHT22;1272;53.332;9.860;2023-04-07T14:21:01;15.30;99.90
2523;DHT22;1272;53.332;9.860;2023-04-07T14:23:28;15.50;99.90
2523;DHT22;1272;53.332;9.860;2023-04-07T14:25:53;15.30;99.90
2523;DHT22;1272;53.332;9.860;2023-04-07T14:28:19;15.00;99.90
2523;DHT22;1272;53.332;9.860;2023-04-07T14:30:45;14.80;99.90
2523;DHT22;1272;53.332;9.860;2023-04-07T14:33:12;14.80;99.90
2523;DHT22;1272;53.332;9.860;2023-04-07T14:35:38;15.00;99.90
2523;DHT22;1272;53.332;9.860;2023-04-07T14:38:03;15.20;99.90
2523;DHT22;1272;53.332;9.860;2023-04-07T14:40:30;15.00;99.90
2523;DHT22;1272;53.332;9.860;2023-04-07T14:42:56;14.90;99.90
2523;DHT22;1272;53.332;9.860;2023-04-07T14:45:23;14.90;99.90
2523;DHT22;1272;53.332;9.860;2023-04-07T14:47:49;14.80;99.90
2523;DHT22;1272;53.332;9.860;2023-04-07T14:50:15;15.00;99.90
2523;DHT22;1272;53.332;9.860;2023-04-07T14:52:41;15.00;99.90
2523;DHT22;1272;53.332;9.860;2023-04-07T14:55:07;15.00;99.90
2523;DHT22;1272;53.332;9.860;2023-04-07T14:57:33;15.20;99.90
2523;DHT22;1272;53.332;9.860;2023-04-07T14:59:59;14.90;99.90
2523;DHT22;1272;53.332;9.860;2023-04-07T15:02:24;14.60;99.90
2523;DHT22;1272;53.332;9.860;2023-04-07T15:04:52;14.70;99.90
2523;DHT22;1272;53.332;9.860;2023-04-07T15:07:18;15.10;99.90
2523;DHT22;1272;53.332;9.860;2023-04-07T15:09:46;15.00;99.90
2523;DHT22;1272;53.332;9.860;2023-04-07T15:12:12;14.80;99.90
2523;DHT22;1272;53.332;9.860;2023-04-07T15:14:37;14.80;99.90
2523;DHT22;1272;53.332;9.860;2023-04-07T15:17:03;14.80;99.90
2523;DHT22;1272;53.332;9.860;2023-04-07T15:19:31;14.90;99.90
2523;DHT22;1272;53.332;9.860;2023-04-07T15:21:57;14.70;99.90
2523;DHT22;1272;53.332;9.860;2023-04-07T15:24:23;14.70;99.90
2523;DHT22;1272;53.332;9.860;2023-04-07T15:26:48;14.50;99.90
2523;DHT22;1272;53.332;9.860;2023-04-07T15:29:14;14.50;99.90
2523;DHT22;1272;53.332;9.860;2023-04-07T15:31:40;14.60;99.90
2523;DHT22;1272;53.332;9.860;2023-04-07T15:34:05;14.60;99.90
2523;DHT22;1272;53.332;9.860;2023-04-07T15:36:31;14.80;99.90
2523;DHT22;1272;53.332;9.860;2023-04-07T15:39:02;14.80;99.90
2523;DHT22;1272;53.332;9.860;2023-04-07T15:41:28;15.10;99.90
2523;DHT22;1272;53.332;9.860;2023-04-07T15:43:54;15.10;99.90
2523;DHT22;1272;53.332;9.860;2023-04-07T15:46:21;15.30;99.90
2523;DHT22;1272;53.332;9.860;2023-04-07T15:48:46;15.20;99.90
2523;DHT22;1272;53.332;9.860;2023-04-07T15:51:12;14.50;99.90
2523;DHT22;1272;53.332;9.860;2023-04-07T15:53:38;14.10;99.90
2523;DHT22;1272;53.332;9.860;2023-04-07T15:56:04;13.80;99.90
2523;DHT22;1272;53.332;9.860;2023-04-07T15:58:30;13.40;99.90
2523;DHT22;1272;53.332;9.860;2023-04-07T16:00:57;12.70;99.90
2523;DHT22;1272;53.332;9.860;2023-04-07T16:03:23;12.40;99.90
2523;DHT22;1272;53.332;9.860;2023-04-07T16:05:49;12.00;99.90
2523;DHT22;1272;53.332;9.860;2023-04-07T16:08:15;11.90;99.90
2523;DHT22;1272;53.332;9.860;2023-04-07T16:10:42;11.80;99.90
2523;DHT22;1272;53.332;9.860;2023-04-07T16:13:08;12.00;99.90
2523;DHT22;1272;53.332;9.860;2023-04-07T16:15:34;12.10;99.90
2523;DHT22;1272;53.332;9.860;2023-04-07T16:18:03;12.10;99.90
2523;DHT22;1272;53.332;9.860;2023-04-07T16:20:29;11.60;99.90
2523;DHT22;1272;53.332;9.860;2023-04-07T16:22:54;11.40;99.90
2523;DHT22;1272;53.332;9.860;2023-04-07T16:25:20;11.20;99.90
2523;DHT22;1272;53.332;9.860;2023-04-07T16:27:46;11.10;99.90
2523;DHT22;1272;53.332;9.860;2023-04-07T16:30:13;11.00;99.90